Time;durP1;ratioP1;P1;durP2;ratioP2;P2;SDS_P1;SDS_P2;PMS_P1;PMS_P2;Temp;Humidity;BMP_temperature;BMP_pressure;BME280_temperature;BME280_humidity;BME280_pressure;Samples;Min_cycle;Max_cycle;Signal;HPM_P1;HPM_P2
2022/05/21 00:00:54;;;;;;;5.53;2.63;;;;;;;;;;5099554;28;20574;-70
2022/05/21 00:03:22;;;;;;;4.00;2.77;;;;;;;;;;5099709;28;20210;-71
2022/05/21 00:05:50;;;;;;;6.23;2.40;;;;;;;;;;5099348;28;20643;-71
2022/05/21 00:08:18;;;;;;;5.53;2.50;;;;;;;;;;5099270;28;20727;-71
2022/05/21 00:10:46;;;;;;;5.13;2.20;;;;;;;;;;5099195;28;20639;-71
2022/05/21 00:13:14;;;;;;;4.43;3.10;;;;;;;;;;5099504;28;20203;-71
2022/05/21 00:15:42;;;;;;;6.87;2.83;;;;;;;;;;5098510;28;20313;-71
2022/05/21 00:18:12;;;;;;;4.63;2.90;;;;;;;;;;5099450;28;20214;-71
2022/05/21 00:20:49;;;;;;;5.13;2.60;;;;;;;;;;5099395;28;20199;-71
2022/05/21 00:23:18;;;;;;;2.90;2.60;;;;;;;;;;5099351;28;20233;-70
2022/05/21 00:25:47;;;;;;;5.87;3.17;;;;;;;;;;5098757;28;20762;-71
2022/05/21 00:28:16;;;;;;;4.43;2.67;;;;;;;;;;5099238;28;20222;-71
2022/05/21 00:30:44;;;;;;;5.07;3.07;;;;;;;;;;5099256;28;20237;-71
2022/05/21 00:33:14;;;;;;;4.43;2.70;;;;;;;;;;5098756;28;20274;-70
2022/05/21 00:35:42;;;;;;;6.20;2.83;;;;;;;;;;5098062;28;20253;-71
2022/05/21 00:38:11;;;;;;;3.97;2.70;;;;;;;;;;5098679;28;20246;-72
2022/05/21 00:40:39;;;;;;;3.07;2.47;;;;;;;;;;5098796;28;20241;-72
2022/05/21 00:43:07;;;;;;;4.37;2.63;;;;;;;;;;5098993;28;20211;-71
2022/05/21 00:45:36;;;;;;;3.73;2.97;;;;;;;;;;5098663;28;20234;-71
2022/05/21 00:48:04;;;;;;;5.87;2.90;;;;;;;;;;5098461;28;20198;-72
2022/05/21 00:50:33;;;;;;;5.13;2.90;;;;;;;;;;5098176;28;20253;-72
2022/05/21 00:53:03;;;;;;;4.00;3.37;;;;;;;;;;5095867;28;20206;-71
2022/05/21 00:55:32;;;;;;;3.20;2.90;;;;;;;;;;5098269;28;20227;-71
2022/05/21 01:00:47;;;;;;;5.03;2.90;;;;;;;;;;5098521;28;20213;-71
2022/05/21 01:03:16;;;;;;;6.03;2.87;;;;;;;;;;5094877;28;20205;-72
2022/05/21 01:05:46;;;;;;;3.10;2.70;;;;;;;;;;5097091;28;20248;-72
2022/05/21 01:08:17;;;;;;;6.90;3.73;;;;;;;;;;5098308;28;20221;-72
2022/05/21 01:10:49;;;;;;;7.07;5.10;;;;;;;;;;5098160;28;20265;-72
2022/05/21 01:13:17;;;;;;;6.17;3.27;;;;;;;;;;5095129;28;20255;-71
2022/05/21 01:15:46;;;;;;;4.50;3.57;;;;;;;;;;5098346;28;20268;-71
2022/05/21 01:18:14;;;;;;;5.07;2.77;;;;;;;;;;5098435;28;20209;-71
2022/05/21 01:20:44;;;;;;;5.83;3.60;;;;;;;;;;5097758;28;20194;-71
2022/05/21 01:23:14;;;;;;;4.23;3.20;;;;;;;;;;5096878;28;20254;-71
2022/05/21 01:25:42;;;;;;;6.17;3.30;;;;;;;;;;5097150;28;20274;-71
2022/05/21 01:28:12;;;;;;;4.30;2.73;;;;;;;;;;5097014;28;20313;-72
2022/05/21 01:30:41;;;;;;;6.00;2.93;;;;;;;;;;5097220;28;20245;-71
2022/05/21 01:33:11;;;;;;;3.90;3.47;;;;;;;;;;5097188;28;20293;-72
2022/05/21 01:35:40;;;;;;;5.03;3.27;;;;;;;;;;5097282;28;20250;-71
2022/05/21 01:38:09;;;;;;;3.90;3.17;;;;;;;;;;5097812;28;20229;-71
2022/05/21 01:40:39;;;;;;;6.50;3.50;;;;;;;;;;5096229;28;20189;-71
2022/05/21 01:45:53;;;;;;;8.10;3.87;;;;;;;;;;5093655;28;20347;-72
2022/05/21 01:48:21;;;;;;;7.37;3.03;;;;;;;;;;5087770;28;20232;-71
2022/05/21 01:50:50;;;;;;;5.90;3.47;;;;;;;;;;5096585;28;20302;-71
2022/05/21 01:53:18;;;;;;;6.07;4.63;;;;;;;;;;5096650;28;20900;-71
2022/05/21 01:55:48;;;;;;;6.97;3.57;;;;;;;;;;5095899;28;20248;-72
2022/05/21 01:58:17;;;;;;;3.97;3.30;;;;;;;;;;5097052;28;20207;-71
2022/05/21 02:00:46;;;;;;;6.23;3.27;;;;;;;;;;5096352;28;20196;-69
2022/05/21 02:03:14;;;;;;;3.77;2.80;;;;;;;;;;5097233;28;20220;-69
2022/05/21 02:05:44;;;;;;;4.63;3.30;;;;;;;;;;5096787;28;20714;-69
2022/05/21 02:08:13;;;;;;;6.67;3.10;;;;;;;;;;5096993;28;20675;-69
2022/05/21 02:10:42;;;;;;;6.10;3.10;;;;;;;;;;5096369;28;20204;-69
2022/05/21 02:13:15;;;;;;;4.90;3.03;;;;;;;;;;5097256;28;20224;-69
2022/05/21 02:15:43;;;;;;;3.97;2.90;;;;;;;;;;5094901;28;20219;-69
2022/05/21 02:18:11;;;;;;;4.60;3.03;;;;;;;;;;5097192;28;20687;-70
2022/05/21 02:20:39;;;;;;;5.77;3.37;;;;;;;;;;5096428;28;20278;-69
2022/05/21 02:23:07;;;;;;;3.87;2.80;;;;;;;;;;5096746;28;20210;-69
2022/05/21 02:25:35;;;;;;;6.50;3.50;;;;;;;;;;5096161;28;20317;-69
2022/05/21 02:28:03;;;;;;;4.70;2.70;;;;;;;;;;5096248;28;20206;-69
2022/05/21 02:30:33;;;;;;;5.50;3.33;;;;;;;;;;5096462;28;20595;-69
2022/05/21 02:33:01;;;;;;;5.70;2.80;;;;;;;;;;5097226;28;20241;-69
2022/05/21 02:35:29;;;;;;;3.80;2.90;;;;;;;;;;5097297;28;20326;-69
2022/05/21 02:40:43;;;;;;;3.30;2.90;;;;;;;;;;5100378;28;20620;-69
2022/05/21 02:43:11;;;;;;;7.03;3.30;;;;;;;;;;5101192;28;20206;-69
2022/05/21 02:45:40;;;;;;;3.83;3.37;;;;;;;;;;5101371;28;20227;-69
2022/05/21 02:48:08;;;;;;;5.50;2.80;;;;;;;;;;5101014;28;20204;-69
2022/05/21 02:50:37;;;;;;;6.20;2.70;;;;;;;;;;5100872;28;20213;-70
2022/05/21 02:53:06;;;;;;;4.63;2.90;;;;;;;;;;5101061;28;20259;-69
2022/05/21 02:55:35;;;;;;;5.20;3.33;;;;;;;;;;5100716;28;20264;-69
2022/05/21 02:58:03;;;;;;;4.57;3.10;;;;;;;;;;5100820;28;20214;-69
2022/05/21 03:00:32;;;;;;;4.10;3.03;;;;;;;;;;5100761;28;20242;-69
2022/05/21 03:03:01;;;;;;;5.47;3.60;;;;;;;;;;5100797;28;20284;-69
2022/05/21 03:05:31;;;;;;;5.73;3.37;;;;;;;;;;5100484;28;20225;-69
2022/05/21 03:08:00;;;;;;;5.97;3.50;;;;;;;;;;5100343;28;20207;-69
2022/05/21 03:10:28;;;;;;;5.53;3.73;;;;;;;;;;5100226;28;20563;-69
2022/05/21 03:12:57;;;;;;;5.00;3.30;;;;;;;;;;5100626;28;20258;-69
2022/05/21 03:15:28;;;;;;;7.80;3.40;;;;;;;;;;5100336;28;20753;-69
2022/05/21 03:17:56;;;;;;;7.93;3.50;;;;;;;;;;5100679;28;20229;-69
2022/05/21 03:20:26;;;;;;;4.20;3.40;;;;;;;;;;5087008;28;20202;-69
2022/05/21 03:22:54;;;;;;;5.63;3.30;;;;;;;;;;5100233;28;20262;-69
2022/05/21 03:25:23;;;;;;;8.53;3.37;;;;;;;;;;5099850;28;20237;-69
2022/05/21 03:27:51;;;;;;;3.80;3.20;;;;;;;;;;5100321;28;20208;-69
2022/05/21 03:30:21;;;;;;;8.00;3.20;;;;;;;;;;5100411;28;20202;-69
2022/05/21 03:32:49;;;;;;;5.03;3.20;;;;;;;;;;5099830;28;20281;-69
2022/05/21 03:35:17;;;;;;;8.43;3.33;;;;;;;;;;5100377;28;20289;-72
2022/05/21 03:37:46;;;;;;;5.33;3.67;;;;;;;;;;5100211;28;20245;-70
2022/05/21 03:40:16;;;;;;;6.80;3.27;;;;;;;;;;5100052;28;20246;-70
2022/05/21 03:42:45;;;;;;;3.83;2.83;;;;;;;;;;5099895;28;20693;-70
2022/05/21 03:45:14;;;;;;;4.67;2.97;;;;;;;;;;5100051;28;20214;-72
2022/05/21 03:47:43;;;;;;;4.33;3.77;;;;;;;;;;5100241;28;20234;-72
2022/05/21 03:50:12;;;;;;;4.20;3.00;;;;;;;;;;5099736;28;20202;-72
2022/05/21 03:52:40;;;;;;;8.27;4.23;;;;;;;;;;5099576;28;20230;-71
2022/05/21 03:55:10;;;;;;;7.70;4.10;;;;;;;;;;5099574;28;20330;-70
2022/05/21 03:57:38;;;;;;;5.97;4.07;;;;;;;;;;5099967;28;20209;-69
2022/05/21 04:00:08;;;;;;;10.90;4.77;;;;;;;;;;5100098;28;20206;-69
2022/05/21 04:02:37;;;;;;;7.20;5.07;;;;;;;;;;5099868;28;20282;-70
2022/05/21 04:05:06;;;;;;;8.53;5.00;;;;;;;;;;5099525;28;20212;-69
2022/05/21 04:07:34;;;;;;;8.23;5.10;;;;;;;;;;5099903;28;20215;-69
2022/05/21 04:10:02;;;;;;;6.97;5.17;;;;;;;;;;5099351;28;20247;-70
2022/05/21 04:12:32;;;;;;;9.00;4.93;;;;;;;;;;5099391;28;20263;-69
2022/05/21 04:15:01;;;;;;;8.03;5.17;;;;;;;;;;5099414;28;20708;-69
2022/05/21 04:17:28;;;;;;;11.23;5.40;;;;;;;;;;5099394;28;20612;-69
2022/05/21 04:19:56;;;;;;;9.53;5.90;;;;;;;;;;5099217;28;20582;-69
2022/05/21 04:22:24;;;;;;;7.67;6.40;;;;;;;;;;5099629;28;20234;-69
2022/05/21 04:24:52;;;;;;;7.60;6.53;;;;;;;;;;5098841;28;20210;-69
2022/05/21 04:27:20;;;;;;;13.10;6.30;;;;;;;;;;5099408;28;20257;-68
2022/05/21 04:29:50;;;;;;;9.30;6.90;;;;;;;;;;5099093;28;20270;-69
2022/05/21 04:32:19;;;;;;;10.73;7.03;;;;;;;;;;5099338;28;20257;-68
2022/05/21 04:34:47;;;;;;;10.23;7.17;;;;;;;;;;5098832;28;20201;-68
2022/05/21 04:37:15;;;;;;;11.67;7.13;;;;;;;;;;5098692;28;20265;-69
2022/05/21 04:39:43;;;;;;;9.53;7.33;;;;;;;;;;5098716;28;20237;-69
2022/05/21 04:42:11;;;;;;;10.80;7.13;;;;;;;;;;5098922;28;20621;-69
2022/05/21 04:44:39;;;;;;;10.53;6.97;;;;;;;;;;5098410;28;20796;-69
2022/05/21 04:47:09;;;;;;;11.53;7.93;;;;;;;;;;5098437;28;20230;-70
2022/05/21 04:49:36;;;;;;;12.20;6.90;;;;;;;;;;5098979;28;20237;-68
2022/05/21 04:52:05;;;;;;;14.50;6.90;;;;;;;;;;5098484;28;20209;-69
2022/05/21 04:54:33;;;;;;;8.93;6.73;;;;;;;;;;5098418;28;20288;-68
2022/05/21 04:57:01;;;;;;;9.70;7.17;;;;;;;;;;5098575;28;20226;-69
2022/05/21 04:59:29;;;;;;;7.80;6.77;;;;;;;;;;5098713;28;20218;-70
2022/05/21 05:01:58;;;;;;;10.07;6.57;;;;;;;;;;5097922;28;20268;-70
2022/05/21 05:04:27;;;;;;;13.30;6.87;;;;;;;;;;5098725;28;20210;-69
2022/05/21 05:06:55;;;;;;;7.40;5.93;;;;;;;;;;5098503;28;20265;-69
2022/05/21 05:09:23;;;;;;;10.50;6.57;;;;;;;;;;5098530;28;20244;-68
2022/05/21 05:11:52;;;;;;;9.23;6.40;;;;;;;;;;5094991;28;20230;-69
2022/05/21 05:14:20;;;;;;;8.97;6.40;;;;;;;;;;5098468;28;20231;-69
2022/05/21 05:16:48;;;;;;;8.70;6.20;;;;;;;;;;5098150;28;20761;-69
2022/05/21 05:19:18;;;;;;;9.43;6.73;;;;;;;;;;5098514;28;20297;-69
2022/05/21 05:21:47;;;;;;;8.37;6.00;;;;;;;;;;5097983;28;20211;-71
2022/05/21 05:24:15;;;;;;;7.40;6.37;;;;;;;;;;5097950;28;20203;-68
2022/05/21 05:26:43;;;;;;;8.37;5.60;;;;;;;;;;5097987;28;20255;-70
2022/05/21 05:29:11;;;;;;;8.17;5.47;;;;;;;;;;5098439;28;20207;-70
2022/05/21 05:31:39;;;;;;;8.97;5.80;;;;;;;;;;5098263;28;20251;-70
2022/05/21 05:34:07;;;;;;;8.80;5.73;;;;;;;;;;5098101;28;20233;-69
2022/05/21 05:36:35;;;;;;;7.07;5.87;;;;;;;;;;5097847;28;20631;-68
2022/05/21 05:39:05;;;;;;;7.93;5.80;;;;;;;;;;5098098;28;20241;-70
2022/05/21 05:41:33;;;;;;;7.33;5.50;;;;;;;;;;5097509;28;20203;-71
2022/05/21 05:44:01;;;;;;;8.50;5.50;;;;;;;;;;5097932;28;20240;-70
2022/05/21 05:46:29;;;;;;;8.33;5.90;;;;;;;;;;5096433;28;20717;-70
2022/05/21 05:48:57;;;;;;;7.97;5.40;;;;;;;;;;5097855;28;20244;-72
2022/05/21 05:51:26;;;;;;;8.50;5.23;;;;;;;;;;5097826;28;20203;-71
2022/05/21 05:53:54;;;;;;;7.13;4.90;;;;;;;;;;5097768;28;20225;-72
2022/05/21 05:56:24;;;;;;;7.00;5.03;;;;;;;;;;5097631;28;20260;-76
2022/05/21 06:01:38;;;;;;;5.83;4.90;;;;;;;;;;5097789;28;20295;-76
2022/05/21 06:04:06;;;;;;;6.07;4.70;;;;;;;;;;5097847;28;20230;-76
2022/05/21 06:06:34;;;;;;;5.70;4.77;;;;;;;;;;5097418;28;20228;-75
2022/05/21 06:09:02;;;;;;;4.90;4.40;;;;;;;;;;5097455;28;20206;-75
2022/05/21 06:11:37;;;;;;;5.60;4.80;;;;;;;;;;5097118;28;20204;-75
2022/05/21 06:14:07;;;;;;;6.30;4.87;;;;;;;;;;5093231;28;20229;-75
2022/05/21 06:16:35;;;;;;;7.07;4.90;;;;;;;;;;5092325;28;20260;-75
2022/05/21 06:19:03;;;;;;;5.83;4.40;;;;;;;;;;5101688;28;20235;-75
2022/05/21 06:21:31;;;;;;;7.23;4.80;;;;;;;;;;5098072;28;20235;-76
2022/05/21 06:23:59;;;;;;;6.13;4.47;;;;;;;;;;5101549;28;20206;-76
2022/05/21 06:26:27;;;;;;;8.07;3.90;;;;;;;;;;5101111;28;20258;-77
2022/05/21 06:28:57;;;;;;;5.17;3.93;;;;;;;;;;5101168;28;20716;-76
2022/05/21 06:31:25;;;;;;;5.37;3.83;;;;;;;;;;5101497;28;20203;-74
2022/05/21 06:33:53;;;;;;;6.67;4.10;;;;;;;;;;5100987;28;20232;-76
2022/05/21 06:36:22;;;;;;;7.37;4.03;;;;;;;;;;5101301;28;20259;-79
2022/05/21 06:38:50;;;;;;;5.77;3.90;;;;;;;;;;5101245;28;20243;-77
2022/05/21 06:41:18;;;;;;;6.83;4.10;;;;;;;;;;5100841;28;20207;-76
2022/05/21 06:43:48;;;;;;;5.07;4.07;;;;;;;;;;5100939;28;20283;-79
2022/05/21 06:46:18;;;;;;;6.77;4.30;;;;;;;;;;5101107;28;20290;-76
2022/05/21 06:48:46;;;;;;;5.70;4.23;;;;;;;;;;5100170;28;20645;-78
2022/05/21 06:51:14;;;;;;;5.23;4.07;;;;;;;;;;5100727;28;20233;-76
2022/05/21 06:53:42;;;;;;;8.13;4.97;;;;;;;;;;5100312;28;20795;-75
2022/05/21 06:56:11;;;;;;;6.13;4.20;;;;;;;;;;5100473;28;20306;-74
2022/05/21 06:58:39;;;;;;;6.33;4.77;;;;;;;;;;5100305;28;20718;-76
2022/05/21 07:01:09;;;;;;;5.43;4.10;;;;;;;;;;5100666;28;20234;-76
2022/05/21 07:03:38;;;;;;;5.17;3.77;;;;;;;;;;5087386;28;20241;-76
2022/05/21 07:08:52;;;;;;;4.97;4.33;;;;;;;;;;5091659;28;20209;-75
2022/05/21 07:11:20;;;;;;;7.13;4.20;;;;;;;;;;5097284;28;20231;-75
2022/05/21 07:13:48;;;;;;;4.03;3.63;;;;;;;;;;5100527;28;20262;-75
2022/05/21 07:16:16;;;;;;;9.87;4.20;;;;;;;;;;5100140;28;20221;-75
2022/05/21 07:18:46;;;;;;;6.90;4.00;;;;;;;;;;5100230;28;20263;-76
2022/05/21 07:21:15;;;;;;;4.67;3.63;;;;;;;;;;5100160;28;20328;-76
2022/05/21 07:23:44;;;;;;;8.53;3.90;;;;;;;;;;5100200;28;20202;-77
2022/05/21 07:26:12;;;;;;;4.37;3.93;;;;;;;;;;5099378;28;20226;-76
2022/05/21 07:28:40;;;;;;;3.90;3.50;;;;;;;;;;5099966;28;20201;-76
2022/05/21 07:31:08;;;;;;;7.83;3.93;;;;;;;;;;5099849;28;20583;-75
2022/05/21 07:33:40;;;;;;;4.77;3.80;;;;;;;;;;5100068;28;20277;-76
2022/05/21 07:39:38;;;;;;;4.83;4.33;;;;;;;;;;5099497;28;21046;-78
2022/05/21 07:42:06;;;;;;;6.70;4.80;;;;;;;;;;5099333;28;20627;-77
2022/05/21 07:44:35;;;;;;;5.27;4.17;;;;;;;;;;5099770;28;20202;-76
2022/05/21 07:47:03;;;;;;;10.23;4.47;;;;;;;;;;5099778;28;20264;-78
2022/05/21 07:49:31;;;;;;;9.00;5.00;;;;;;;;;;5099865;28;20251;-76
2022/05/21 07:51:59;;;;;;;5.70;4.33;;;;;;;;;;5099497;28;20612;-76
2022/05/21 07:54:27;;;;;;;5.03;4.50;;;;;;;;;;5099207;28;20231;-76
2022/05/21 07:56:57;;;;;;;6.13;4.60;;;;;;;;;;5098412;28;20658;-76
2022/05/21 07:59:25;;;;;;;4.77;4.23;;;;;;;;;;5098851;28;20207;-76
2022/05/21 08:01:53;;;;;;;6.77;4.23;;;;;;;;;;5098923;28;20249;-77
2022/05/21 08:04:21;;;;;;;5.03;4.40;;;;;;;;;;5099144;28;20633;-78
2022/05/21 08:06:49;;;;;;;5.93;4.30;;;;;;;;;;5099056;28;20267;-76
2022/05/21 08:09:22;;;;;;;6.03;4.53;;;;;;;;;;5098021;28;20670;-76
2022/05/21 08:11:50;;;;;;;8.53;4.17;;;;;;;;;;5099246;28;20198;-76
2022/05/21 08:14:19;;;;;;;7.80;4.60;;;;;;;;;;5099444;28;20261;-76
2022/05/21 08:16:49;;;;;;;7.93;4.20;;;;;;;;;;5099092;28;20218;-76
2022/05/21 08:19:17;;;;;;;6.60;4.07;;;;;;;;;;5098925;28;20790;-76
2022/05/21 08:21:45;;;;;;;4.37;3.97;;;;;;;;;;5098879;28;20712;-76
2022/05/21 08:27:01;;;;;;;9.43;5.00;;;;;;;;;;5098734;28;20225;-78
2022/05/21 08:29:32;;;;;;;6.93;4.90;;;;;;;;;;5098690;28;20622;-76
2022/05/21 08:32:00;;;;;;;9.67;5.10;;;;;;;;;;5098824;28;20236;-76
2022/05/21 08:34:29;;;;;;;6.03;4.93;;;;;;;;;;5098482;28;20318;-76
2022/05/21 08:36:57;;;;;;;9.47;5.20;;;;;;;;;;5097843;28;20263;-76
2022/05/21 08:39:25;;;;;;;7.17;5.53;;;;;;;;;;5098392;28;20209;-78
2022/05/21 08:41:56;;;;;;;15.97;5.47;;;;;;;;;;5092758;28;20229;-78
2022/05/21 08:44:28;;;;;;;7.67;5.00;;;;;;;;;;5094648;28;20236;-78
2022/05/21 08:47:02;;;;;;;6.43;4.83;;;;;;;;;;5098767;28;20257;-76
2022/05/21 08:49:33;;;;;;;6.57;4.83;;;;;;;;;;5098509;28;20642;-77
2022/05/21 08:52:06;;;;;;;5.13;4.57;;;;;;;;;;5098511;28;20704;-76
2022/05/21 08:54:38;;;;;;;8.80;5.57;;;;;;;;;;5097691;28;20257;-77
2022/05/21 08:57:08;;;;;;;5.57;5.07;;;;;;;;;;5098349;28;20264;-77
2022/05/21 08:59:39;;;;;;;6.00;4.60;;;;;;;;;;5098622;28;20258;-76
2022/05/21 09:02:10;;;;;;;8.90;5.73;;;;;;;;;;5098178;28;20240;-76
2022/05/21 09:04:39;;;;;;;9.10;5.23;;;;;;;;;;5098454;28;20250;-78
2022/05/21 09:07:13;;;;;;;8.00;6.27;;;;;;;;;;5098266;28;20225;-77
2022/05/21 09:09:47;;;;;;;6.30;4.80;;;;;;;;;;5098028;28;20743;-75
2022/05/21 09:12:18;;;;;;;5.90;5.30;;;;;;;;;;5097857;28;20727;-75
2022/05/21 09:14:49;;;;;;;7.00;5.20;;;;;;;;;;5097924;28;20282;-76
2022/05/21 09:17:18;;;;;;;8.13;5.43;;;;;;;;;;5097674;28;20231;-77
2022/05/21 09:19:48;;;;;;;7.43;5.57;;;;;;;;;;5098181;28;20262;-76
2022/05/21 09:22:17;;;;;;;5.67;5.07;;;;;;;;;;5097903;28;20641;-76
2022/05/21 09:25:16;;;;;;;6.03;4.73;;;;;;;;;;5097472;28;20198;-76
2022/05/21 09:27:46;;;;;;;8.00;4.83;;;;;;;;;;5097852;28;20664;-76
2022/05/21 09:30:17;;;;;;;5.67;5.10;;;;;;;;;;5097716;28;20203;-76
2022/05/21 09:32:49;;;;;;;8.63;5.23;;;;;;;;;;5098173;28;20210;-76
2022/05/21 09:35:19;;;;;;;8.13;7.17;;;;;;;;;;5096088;28;20313;-76
2022/05/21 09:37:47;;;;;;;7.63;5.63;;;;;;;;;;5095211;28;20197;-75
2022/05/21 09:40:26;;;;;;;6.87;5.07;;;;;;;;;;5097377;28;20206;-76
2022/05/21 09:45:40;;;;;;;7.47;4.80;;;;;;;;;;5093701;28;20226;-76
2022/05/21 09:48:18;;;;;;;7.63;6.00;;;;;;;;;;5097103;28;20238;-76
2022/05/21 09:50:48;;;;;;;6.20;5.60;;;;;;;;;;5097008;28;20211;-75
2022/05/21 09:53:33;;;;;;;7.07;6.23;;;;;;;;;;5097169;28;20236;-75
2022/05/21 09:56:02;;;;;;;10.07;5.73;;;;;;;;;;5096502;28;20222;-75
2022/05/21 09:58:33;;;;;;;8.10;5.87;;;;;;;;;;5097048;28;20575;-75
2022/05/21 10:01:01;;;;;;;7.97;6.30;;;;;;;;;;5096751;28;20239;-75
2022/05/21 10:03:38;;;;;;;7.90;5.60;;;;;;;;;;5097322;28;20203;-77
2022/05/21 10:06:08;;;;;;;12.07;6.20;;;;;;;;;;5097355;28;20225;-77
2022/05/21 10:11:28;;;;;;;9.47;6.57;;;;;;;;;;5076468;28;20240;-77
2022/05/21 10:13:57;;;;;;;11.57;6.90;;;;;;;;;;5093829;28;20264;-77
2022/05/21 10:16:29;;;;;;;9.30;6.53;;;;;;;;;;5096468;28;20693;-78
2022/05/21 10:19:02;;;;;;;11.07;7.17;;;;;;;;;;5097582;28;20205;-77
2022/05/21 10:21:35;;;;;;;7.17;5.80;;;;;;;;;;5097149;28;20583;-78
2022/05/21 10:24:05;;;;;;;9.63;5.77;;;;;;;;;;5097243;28;20243;-78
2022/05/21 10:26:44;;;;;;;6.80;5.67;;;;;;;;;;5097096;28;20226;-78
2022/05/21 10:29:28;;;;;;;7.77;5.43;;;;;;;;;;5097567;28;20205;-75
2022/05/21 10:32:02;;;;;;;9.07;6.00;;;;;;;;;;5097511;28;20246;-76
2022/05/21 10:34:37;;;;;;;10.27;6.63;;;;;;;;;;5097084;28;20646;-76
2022/05/21 10:37:18;;;;;;;10.27;6.10;;;;;;;;;;5097114;28;20269;-78
2022/05/21 10:39:59;;;;;;;8.10;6.23;;;;;;;;;;5097230;28;20207;-78
2022/05/21 10:42:36;;;;;;;7.20;6.13;;;;;;;;;;5097323;28;20240;-78
2022/05/21 10:45:14;;;;;;;12.80;6.90;;;;;;;;;;5096823;28;20293;-78
2022/05/21 10:47:50;;;;;;;9.33;6.17;;;;;;;;;;5097274;28;20206;-77
2022/05/21 10:50:27;;;;;;;8.83;5.83;;;;;;;;;;5097109;28;20659;-76
2022/05/21 10:53:11;;;;;;;7.60;5.77;;;;;;;;;;5097051;28;20620;-76
2022/05/21 10:55:41;;;;;;;7.93;6.20;;;;;;;;;;5096641;28;20591;-76
2022/05/21 10:58:14;;;;;;;6.63;5.93;;;;;;;;;;5097232;28;20242;-78
2022/05/21 11:00:47;;;;;;;11.73;6.00;;;;;;;;;;5099165;28;20235;-78
2022/05/21 11:03:24;;;;;;;6.77;6.03;;;;;;;;;;5100795;28;20217;-77
2022/05/21 11:06:10;;;;;;;6.57;5.73;;;;;;;;;;5100990;28;20222;-76
2022/05/21 11:08:43;;;;;;;9.93;5.97;;;;;;;;;;5090545;28;20212;-76
2022/05/21 11:11:13;;;;;;;7.60;6.43;;;;;;;;;;5099279;28;20201;-76
2022/05/21 11:13:47;;;;;;;10.43;5.70;;;;;;;;;;5094056;28;20229;-76
2022/05/21 11:16:23;;;;;;;9.10;5.90;;;;;;;;;;5099553;28;20307;-76
2022/05/21 11:18:53;;;;;;;9.47;6.20;;;;;;;;;;5100619;28;20211;-76
2022/05/21 11:21:25;;;;;;;13.07;6.00;;;;;;;;;;5100650;28;20255;-76
2022/05/21 11:23:56;;;;;;;6.70;5.10;;;;;;;;;;5100012;28;20235;-76
2022/05/21 11:26:33;;;;;;;7.83;5.83;;;;;;;;;;5099934;28;20247;-76
2022/05/21 11:29:05;;;;;;;7.63;5.73;;;;;;;;;;5100061;28;20354;-76
2022/05/21 11:37:21;;;;;;;10.60;5.60;;;;;;;;;;5100253;28;20296;-76
2022/05/21 11:39:52;;;;;;;8.57;6.20;;;;;;;;;;5099569;28;20201;-76
2022/05/21 11:42:22;;;;;;;8.43;5.60;;;;;;;;;;5100271;28;20638;-76
2022/05/21 11:44:57;;;;;;;8.93;6.47;;;;;;;;;;5098719;28;20246;-77
2022/05/21 11:47:40;;;;;;;10.70;6.23;;;;;;;;;;5100340;28;20221;-76
2022/05/21 11:50:14;;;;;;;8.53;6.13;;;;;;;;;;5100152;28;20214;-76
2022/05/21 11:52:53;;;;;;;6.70;6.00;;;;;;;;;;5099651;28;20712;-76
2022/05/21 11:55:24;;;;;;;12.27;6.03;;;;;;;;;;5099371;28;20239;-76
2022/05/21 11:57:54;;;;;;;9.60;5.80;;;;;;;;;;5099891;28;20258;-76
2022/05/21 12:00:55;;;;;;;7.10;5.70;;;;;;;;;;5099977;28;20207;-76
2022/05/21 12:03:24;;;;;;;7.50;5.57;;;;;;;;;;5099669;28;20232;-76
2022/05/21 12:05:56;;;;;;;5.80;5.30;;;;;;;;;;5099397;28;20220;-76
2022/05/21 12:08:36;;;;;;;7.57;5.80;;;;;;;;;;5099817;28;20213;-76
2022/05/21 12:11:08;;;;;;;6.50;5.57;;;;;;;;;;5099522;28;20244;-76
2022/05/21 12:14:01;;;;;;;9.20;5.60;;;;;;;;;;5097402;28;20206;-76
2022/05/21 12:16:42;;;;;;;8.67;5.43;;;;;;;;;;5097812;28;20258;-76
2022/05/21 12:19:30;;;;;;;9.97;5.60;;;;;;;;;;5099348;28;20205;-76
2022/05/21 12:21:59;;;;;;;10.80;6.23;;;;;;;;;;5086272;28;20209;-77
2022/05/21 12:24:35;;;;;;;9.57;6.07;;;;;;;;;;5098755;28;20727;-76
2022/05/21 12:27:06;;;;;;;6.27;5.30;;;;;;;;;;5099070;28;20269;-76
2022/05/21 12:29:41;;;;;;;17.70;6.17;;;;;;;;;;5099016;28;20207;-76
2022/05/21 12:32:14;;;;;;;7.70;5.33;;;;;;;;;;5098998;28;20252;-76
2022/05/21 12:35:00;;;;;;;7.70;5.70;;;;;;;;;;5098858;28;20327;-76
2022/05/21 12:37:30;;;;;;;8.17;5.37;;;;;;;;;;5098832;28;20231;-76
2022/05/21 12:40:04;;;;;;;7.57;5.77;;;;;;;;;;5098821;28;20211;-76
2022/05/21 12:42:36;;;;;;;12.73;5.53;;;;;;;;;;5098735;28;20301;-76
2022/05/21 12:45:11;;;;;;;9.23;5.17;;;;;;;;;;5098786;28;20207;-76
2022/05/21 12:47:42;;;;;;;7.53;5.03;;;;;;;;;;5098831;28;20206;-76
2022/05/21 12:50:14;;;;;;;8.27;5.60;;;;;;;;;;5097527;28;20237;-76
2022/05/21 12:52:44;;;;;;;11.93;5.97;;;;;;;;;;5098758;28;20204;-76
2022/05/21 12:55:14;;;;;;;8.73;5.40;;;;;;;;;;5098051;28;20550;-76
2022/05/21 12:57:44;;;;;;;10.97;5.53;;;;;;;;;;5098447;28;20294;-76
2022/05/21 13:00:14;;;;;;;8.33;5.40;;;;;;;;;;5098757;28;20209;-76
2022/05/21 13:02:43;;;;;;;6.63;5.53;;;;;;;;;;5098378;28;20282;-75
2022/05/21 13:05:18;;;;;;;5.73;5.03;;;;;;;;;;5098228;28;20734;-76
2022/05/21 13:07:46;;;;;;;8.00;5.97;;;;;;;;;;5098476;28;20208;-76
2022/05/21 13:10:18;;;;;;;7.77;5.80;;;;;;;;;;5098255;28;20240;-76
2022/05/21 13:12:49;;;;;;;11.17;5.90;;;;;;;;;;5098270;28;20237;-76
2022/05/21 13:15:19;;;;;;;8.67;5.60;;;;;;;;;;5086296;28;20655;-76
2022/05/21 13:17:53;;;;;;;9.00;6.13;;;;;;;;;;5094552;28;20256;-76
2022/05/21 13:20:24;;;;;;;11.50;5.93;;;;;;;;;;5090311;28;20630;-76
2022/05/21 13:23:07;;;;;;;9.10;5.37;;;;;;;;;;5097479;28;20234;-76
2022/05/21 13:25:35;;;;;;;7.03;4.83;;;;;;;;;;5097746;28;20221;-75
2022/05/21 13:28:12;;;;;;;9.10;5.07;;;;;;;;;;5098031;28;20696;-76
2022/05/21 13:30:45;;;;;;;8.07;5.30;;;;;;;;;;5098011;28;20736;-76
2022/05/21 13:33:16;;;;;;;9.23;5.03;;;;;;;;;;5098120;28;20290;-76
2022/05/21 13:35:46;;;;;;;8.77;5.40;;;;;;;;;;5098074;28;20238;-76
2022/05/21 13:38:14;;;;;;;7.53;5.20;;;;;;;;;;5097539;28;20256;-76
2022/05/21 13:40:45;;;;;;;7.60;5.47;;;;;;;;;;5097559;28;20241;-76
2022/05/21 13:43:16;;;;;;;9.70;4.85;;;;;;;;;;5097687;28;20245;-76
2022/05/21 13:45:51;;;;;;;9.35;5.10;;;;;;;;;;5097945;28;20227;-76
2022/05/21 13:48:21;;;;;;;10.13;5.15;;;;;;;;;;5097722;28;20625;-76
2022/05/21 13:50:49;;;;;;;5.85;5.07;;;;;;;;;;5097828;28;20239;-76
2022/05/21 13:53:24;;;;;;;8.63;5.10;;;;;;;;;;5097477;28;20243;-76
2022/05/21 13:55:55;;;;;;;6.78;4.75;;;;;;;;;;5097295;28;20661;-76
2022/05/21 13:58:31;;;;;;;7.55;5.03;;;;;;;;;;5097573;28;20339;-76
2022/05/21 14:01:01;;;;;;;5.85;4.72;;;;;;;;;;5097463;28;20217;-76
2022/05/21 14:03:31;;;;;;;5.97;4.70;;;;;;;;;;5097558;28;20205;-76
2022/05/21 14:06:00;;;;;;;9.75;5.65;;;;;;;;;;5097488;28;20588;-76
2022/05/21 14:08:33;;;;;;;5.78;5.07;;;;;;;;;;5097660;28;20208;-76
2022/05/21 14:11:02;;;;;;;8.45;5.05;;;;;;;;;;5097274;28;20311;-76
2022/05/21 14:13:33;;;;;;;7.85;4.97;;;;;;;;;;5094667;28;20208;-76
2022/05/21 14:16:03;;;;;;;7.80;4.93;;;;;;;;;;5094491;28;20224;-76
2022/05/21 14:18:32;;;;;;;10.15;4.95;;;;;;;;;;5096233;28;20228;-76
2022/05/21 14:21:02;;;;;;;5.38;4.40;;;;;;;;;;5097754;28;20251;-76
2022/05/21 14:23:32;;;;;;;8.80;4.95;;;;;;;;;;5097318;28;20235;-76
2022/05/21 14:26:21;;;;;;;8.45;5.00;;;;;;;;;;5096686;28;20361;-76
2022/05/21 14:28:50;;;;;;;6.40;4.68;;;;;;;;;;5097333;28;20684;-75
2022/05/21 14:31:28;;;;;;;8.18;4.40;;;;;;;;;;5096809;28;20250;-75
2022/05/21 14:33:58;;;;;;;9.60;4.65;;;;;;;;;;5097514;28;20201;-76
2022/05/21 14:36:27;;;;;;;10.27;4.95;;;;;;;;;;5100427;28;20255;-76
2022/05/21 14:38:55;;;;;;;7.68;4.93;;;;;;;;;;5100990;28;20247;-76
2022/05/21 14:41:29;;;;;;;7.03;5.03;;;;;;;;;;5100944;28;20300;-76
2022/05/21 14:43:59;;;;;;;8.93;4.75;;;;;;;;;;5100198;28;20274;-77
2022/05/21 14:49:13;;;;;;;9.20;4.53;;;;;;;;;;5101333;28;20203;-76
2022/05/21 14:54:29;;;;;;;8.48;4.53;;;;;;;;;;5100668;28;20237;-75
2022/05/21 14:56:57;;;;;;;4.40;3.63;;;;;;;;;;5101227;28;20228;-75
2022/05/21 14:59:26;;;;;;;8.85;4.32;;;;;;;;;;5100738;28;20268;-75
2022/05/21 15:01:54;;;;;;;7.80;4.20;;;;;;;;;;5100535;28;20280;-76
2022/05/21 15:04:22;;;;;;;7.75;4.45;;;;;;;;;;5100613;28;20250;-76
2022/05/21 15:06:50;;;;;;;7.15;4.32;;;;;;;;;;5099738;28;20258;-74
2022/05/21 15:09:21;;;;;;;9.65;5.05;;;;;;;;;;5100329;28;20261;-75
2022/05/21 15:11:49;;;;;;;7.13;4.78;;;;;;;;;;5100481;28;20639;-69
2022/05/21 15:14:18;;;;;;;7.30;4.60;;;;;;;;;;5100540;28;20639;-70
2022/05/21 15:16:47;;;;;;;10.25;4.40;;;;;;;;;;5092339;28;20269;-68
2022/05/21 15:19:15;;;;;;;7.60;4.40;;;;;;;;;;5095102;28;20281;-68
2022/05/21 15:21:45;;;;;;;8.50;4.88;;;;;;;;;;5100267;28;20211;-68
2022/05/21 15:24:13;;;;;;;5.53;4.07;;;;;;;;;;5100090;28;20214;-67
2022/05/21 15:26:41;;;;;;;12.30;5.28;;;;;;;;;;5100443;28;20261;-67
2022/05/21 15:29:09;;;;;;;5.47;4.90;;;;;;;;;;5100606;28;20589;-67
2022/05/21 15:31:37;;;;;;;7.57;4.50;;;;;;;;;;5099368;28;20199;-68
2022/05/21 15:34:07;;;;;;;11.02;4.57;;;;;;;;;;5099217;28;20209;-68
2022/05/21 15:36:35;;;;;;;6.25;4.20;;;;;;;;;;5098730;28;20800;-68